createdAt,value
2022-08-16T00:00:03.200Z,18.40
2022-08-16T00:02:33.426Z,18.30
2022-08-16T00:05:01.200Z,18.30
2022-08-16T00:07:29.646Z,18.20
2022-08-16T00:09:58.697Z,18.10
2022-08-16T00:12:30.910Z,18.10
2022-08-16T00:15:01.836Z,18.10
2022-08-16T00:17:28.861Z,18.00
2022-08-16T00:20:16.129Z,18.00
2022-08-16T00:22:48.920Z,17.90
2022-08-16T00:25:20.448Z,17.90
2022-08-16T00:28:08.561Z,17.80
2022-08-16T00:30:38.405Z,17.80
2022-08-16T00:33:07.332Z,17.70
2022-08-16T00:35:37.354Z,17.70
2022-08-16T00:38:40.842Z,17.70
2022-08-16T00:40:55.629Z,17.70
2022-08-16T00:43:42.669Z,17.60
2022-08-16T00:46:35.502Z,17.50
2022-08-16T00:49:06.581Z,17.50
2022-08-16T00:51:44.940Z,17.40
2022-08-16T00:54:13.375Z,17.40
2022-08-16T00:56:56.466Z,17.40
2022-08-16T00:59:27.046Z,17.40
2022-08-16T01:01:55.468Z,17.30
2022-08-16T01:04:29.497Z,17.30
2022-08-16T01:07:01.780Z,17.30
2022-08-16T01:09:34.225Z,17.20
2022-08-16T01:12:04.487Z,17.10
2022-08-16T01:14:43.718Z,17.10
2022-08-16T01:17:13.780Z,17.10
2022-08-16T01:19:45.435Z,17.00
2022-08-16T01:22:47.427Z,17.00
2022-08-16T01:25:22.572Z,17.10
2022-08-16T01:28:04.808Z,17.10
2022-08-16T01:30:40.043Z,17.10
2022-08-16T01:33:19.087Z,17.20
2022-08-16T01:35:52.816Z,17.10
2022-08-16T01:38:28.094Z,17.00
2022-08-16T01:41:01.789Z,17.00
2022-08-16T01:43:31.678Z,16.90
2022-08-16T01:46:37.442Z,16.80
2022-08-16T01:48:54.788Z,16.80
2022-08-16T01:51:23.033Z,16.80
2022-08-16T01:53:55.423Z,16.80
2022-08-16T01:56:28.773Z,16.90
2022-08-16T01:58:59.365Z,16.90
2022-08-16T02:01:28.778Z,17.00
2022-08-16T02:04:10.191Z,17.00
2022-08-16T02:06:46.937Z,17.00
2022-08-16T02:09:22.872Z,17.00
2022-08-16T02:11:55.951Z,16.90
2022-08-16T02:14:27.433Z,16.90
2022-08-16T02:16:58.862Z,16.90
2022-08-16T02:19:59.529Z,16.90
2022-08-16T02:22:34.438Z,16.80
2022-08-16T02:25:09.905Z,16.80
2022-08-16T02:27:40.960Z,16.70
2022-08-16T02:30:35.715Z,16.70
2022-08-16T02:33:04.018Z,16.70
2022-08-16T02:35:31.967Z,16.80
2022-08-16T02:38:01.773Z,16.80
2022-08-16T02:40:36.586Z,16.80
2022-08-16T02:43:04.516Z,16.80
2022-08-16T02:45:32.443Z,16.80
2022-08-16T02:48:29.693Z,16.70
2022-08-16T02:50:54.952Z,16.70
2022-08-16T02:53:36.256Z,16.60
2022-08-16T02:56:05.356Z,16.60
2022-08-16T02:58:39.018Z,16.60
2022-08-16T03:01:07.258Z,16.60
2022-08-16T03:04:41.291Z,16.50
2022-08-16T03:06:41.816Z,16.50
2022-08-16T03:09:20.450Z,16.40
2022-08-16T03:11:52.362Z,16.30
2022-08-16T03:14:21.239Z,16.30
2022-08-16T03:16:59.321Z,16.30
2022-08-16T03:19:47.175Z,16.30
2022-08-16T03:22:28.089Z,16.20
2022-08-16T03:25:02.060Z,16.20
2022-08-16T03:27:32.873Z,16.10
2022-08-16T03:30:17.243Z,16.10
2022-08-16T03:32:52.044Z,16.00
2022-08-16T03:35:32.657Z,16.10
2022-08-16T03:38:33.146Z,16.10
2022-08-16T03:40:56.296Z,16.00
2022-08-16T03:43:51.085Z,16.00
2022-08-16T03:46:44.281Z,16.00
2022-08-16T03:49:03.327Z,16.00
2022-08-16T03:51:30.702Z,16.10
2022-08-16T03:54:03.489Z,16.10
2022-08-16T03:56:57.100Z,16.10
2022-08-16T03:59:29.359Z,16.10
2022-08-16T04:02:00.926Z,16.10
2022-08-16T04:04:33.525Z,16.00
2022-08-16T04:07:07.184Z,16.10
2022-08-16T04:09:38.666Z,16.20
2022-08-16T04:12:53.110Z,16.20
2022-08-16T04:14:58.880Z,16.30
2022-08-16T04:17:27.208Z,16.40
2022-08-16T04:19:58.450Z,16.50
2022-08-16T04:22:27.940Z,16.70
2022-08-16T04:24:59.913Z,16.80
2022-08-16T04:27:34.555Z,17.00
2022-08-16T04:30:04.844Z,17.20
2022-08-16T04:32:42.312Z,17.30
2022-08-16T04:35:16.645Z,17.50
2022-08-16T04:37:46.806Z,17.70
2022-08-16T04:40:25.506Z,17.80
2022-08-16T04:42:54.990Z,18.00
2022-08-16T04:45:35.376Z,18.20
2022-08-16T04:48:07.053Z,18.30
2022-08-16T04:50:44.250Z,18.40
2022-08-16T04:53:16.684Z,18.50
2022-08-16T04:55:53.464Z,18.70
2022-08-16T04:58:43.554Z,18.90
2022-08-16T05:01:11.466Z,19.10
2022-08-16T05:03:42.009Z,19.40
2022-08-16T05:06:42.190Z,19.60
2022-08-16T05:09:13.630Z,19.90
2022-08-16T05:11:40.883Z,20.20
2022-08-16T05:14:08.401Z,20.40
2022-08-16T05:16:38.882Z,20.70
2022-08-16T05:19:11.785Z,20.80
2022-08-16T05:21:57.523Z,21.10
2022-08-16T05:24:27.084Z,21.20
2022-08-16T05:26:54.670Z,21.30
2022-08-16T05:30:00.985Z,21.40
2022-08-16T05:32:33.993Z,21.50
2022-08-16T05:35:10.774Z,21.80
2022-08-16T05:37:41.237Z,21.80
2022-08-16T05:40:14.063Z,22.10
2022-08-16T05:42:49.273Z,22.20
2022-08-16T05:45:22.090Z,22.40
2022-08-16T05:48:00.330Z,22.60
2022-08-16T05:50:46.519Z,22.70
2022-08-16T05:53:24.194Z,22.70
2022-08-16T05:56:06.160Z,22.80
2022-08-16T05:58:37.534Z,22.70
2022-08-16T06:01:09.541Z,22.80
2022-08-16T06:03:39.852Z,22.80
2022-08-16T06:06:14.623Z,23.00
2022-08-16T06:08:55.451Z,23.40
2022-08-16T06:11:23.186Z,23.70
2022-08-16T06:13:56.625Z,23.60
2022-08-16T06:16:35.642Z,23.40
2022-08-16T06:19:04.699Z,23.40
2022-08-16T06:21:36.900Z,23.40
2022-08-16T06:24:54.349Z,23.30
2022-08-16T06:26:57.755Z,23.10
2022-08-16T06:29:28.425Z,23.00
2022-08-16T06:31:55.587Z,22.80
2022-08-16T06:34:55.442Z,22.70
2022-08-16T06:37:14.553Z,22.60
2022-08-16T06:39:49.196Z,22.60
2022-08-16T06:42:26.264Z,22.30
2022-08-16T06:45:06.912Z,22.30
2022-08-16T06:47:52.423Z,22.20
2022-08-16T06:50:28.763Z,22.30
2022-08-16T06:53:08.440Z,22.30
2022-08-16T06:55:40.405Z,22.30
2022-08-16T06:58:22.454Z,22.40
2022-08-16T07:01:09.809Z,22.40
2022-08-16T07:03:54.485Z,22.10
2022-08-16T07:06:26.754Z,22.10
2022-08-16T07:08:57.924Z,22.00
2022-08-16T07:11:45.569Z,22.00
2022-08-16T07:14:23.832Z,22.20
2022-08-16T07:16:57.936Z,22.20
2022-08-16T07:19:33.684Z,22.30
2022-08-16T07:22:37.394Z,22.40
2022-08-16T07:25:04.397Z,22.50
2022-08-16T07:27:33.922Z,22.60
2022-08-16T07:30:39.293Z,22.80
2022-08-16T07:33:04.654Z,22.80
2022-08-16T07:35:35.068Z,22.80
2022-08-16T07:38:04.729Z,22.70
2022-08-16T07:41:00.143Z,22.80
2022-08-16T07:43:30.073Z,22.80
2022-08-16T07:46:01.504Z,22.90
2022-08-16T07:48:32.295Z,22.90
2022-08-16T07:51:00.971Z,22.90
2022-08-16T07:53:34.592Z,23.00
2022-08-16T07:56:11.942Z,23.10
2022-08-16T07:58:42.333Z,23.20
2022-08-16T08:01:15.232Z,23.20
2022-08-16T08:03:50.124Z,23.30
2022-08-16T08:06:24.978Z,23.40
2022-08-16T08:08:59.083Z,23.50
2022-08-16T08:11:28.827Z,23.80
2022-08-16T08:14:03.903Z,23.90
2022-08-16T08:16:38.955Z,23.90
2022-08-16T08:19:20.984Z,24.20
2022-08-16T08:21:59.311Z,24.30
2022-08-16T08:24:44.148Z,24.50
2022-08-16T08:27:12.914Z,24.60
2022-08-16T08:30:50.049Z,24.60
2022-08-16T08:32:58.152Z,24.80
2022-08-16T08:35:32.393Z,24.90
2022-08-16T08:38:02.566Z,24.90
2022-08-16T08:40:31.974Z,25.00
2022-08-16T08:43:11.469Z,25.20
2022-08-16T08:45:52.513Z,25.40
2022-08-16T08:48:33.620Z,25.40
2022-08-16T08:51:09.567Z,25.50
2022-08-16T08:53:57.723Z,25.60
2022-08-16T08:56:32.228Z,25.80
2022-08-16T08:59:13.466Z,26.10
2022-08-16T09:01:56.531Z,26.30
2022-08-16T09:04:29.023Z,26.40
2022-08-16T09:06:58.538Z,26.70
2022-08-16T09:09:33.643Z,27.00
2022-08-16T09:12:06.925Z,27.30
2022-08-16T09:14:51.130Z,27.50
2022-08-16T09:17:45.432Z,28.00
2022-08-16T09:20:14.503Z,28.80
2022-08-16T09:22:44.411Z,29.60
2022-08-16T09:25:25.898Z,29.80
2022-08-16T09:27:57.626Z,30.10
2022-08-16T09:30:34.229Z,30.40
2022-08-16T09:33:10.654Z,30.40
2022-08-16T09:35:38.691Z,30.50
2022-08-16T09:38:08.443Z,30.20
2022-08-16T09:40:43.296Z,30.30
2022-08-16T09:43:44.815Z,30.40
2022-08-16T09:46:02.675Z,30.30
2022-08-16T09:48:36.852Z,30.50
2022-08-16T09:51:13.447Z,30.60
2022-08-16T09:53:41.933Z,30.60
2022-08-16T09:56:26.448Z,30.60
2022-08-16T09:59:03.360Z,30.70
2022-08-16T10:01:33.318Z,30.70
2022-08-16T10:04:02.202Z,30.80
2022-08-16T10:06:33.561Z,30.80
2022-08-16T10:09:05.866Z,30.70
2022-08-16T10:11:54.783Z,30.70
2022-08-16T10:14:24.622Z,30.60
2022-08-16T10:17:00.146Z,30.40
2022-08-16T10:19:31.772Z,30.40
2022-08-16T10:22:05.011Z,30.20
2022-08-16T10:24:33.796Z,30.40
2022-08-16T10:27:26.307Z,30.50
2022-08-16T10:30:00.575Z,30.50
2022-08-16T10:32:31.988Z,30.50
2022-08-16T10:35:00.256Z,30.40
2022-08-16T10:37:32.686Z,30.00
2022-08-16T10:40:28.593Z,29.50
2022-08-16T10:42:55.631Z,29.30
2022-08-16T10:45:22.846Z,29.50
2022-08-16T10:48:00.844Z,29.90
2022-08-16T10:50:32.733Z,30.20
2022-08-16T10:53:05.775Z,30.50
2022-08-16T10:55:40.945Z,30.70
2022-08-16T10:58:17.131Z,31.00
2022-08-16T11:00:46.293Z,31.20
2022-08-16T11:06:03.372Z,31.20
2022-08-16T11:08:37.036Z,31.40
2022-08-16T11:11:12.879Z,31.40
2022-08-16T11:14:11.440Z,31.10
2022-08-16T11:19:23.358Z,31.20
2022-08-16T11:24:44.683Z,31.30
2022-08-16T11:27:22.956Z,31.50
2022-08-16T11:29:54.986Z,31.70
2022-08-16T11:32:31.638Z,31.60
2022-08-16T11:35:13.347Z,31.70
2022-08-16T11:40:40.829Z,31.80
2022-08-16T11:43:11.660Z,31.90
2022-08-16T11:45:38.848Z,31.80
2022-08-16T11:48:10.565Z,32.00
2022-08-16T11:50:37.677Z,32.20
2022-08-16T11:53:08.141Z,32.30
2022-08-16T11:55:38.462Z,32.40
2022-08-16T11:58:08.081Z,32.20
2022-08-16T12:00:51.325Z,32.10
2022-08-16T12:03:29.691Z,32.20
2022-08-16T12:06:11.272Z,32.10
2022-08-16T12:08:55.580Z,32.10
2022-08-16T12:11:22.726Z,32.20
2022-08-16T12:13:54.443Z,32.10
2022-08-16T12:16:21.566Z,32.00
2022-08-16T12:18:49.983Z,32.10
2022-08-16T12:21:17.307Z,32.10
2022-08-16T12:23:47.164Z,32.20
2022-08-16T12:26:14.268Z,32.20
2022-08-16T12:28:55.093Z,32.20
2022-08-16T12:31:24.466Z,32.10
2022-08-16T12:33:54.329Z,32.00
2022-08-16T12:36:26.422Z,32.00
2022-08-16T12:38:57.316Z,32.20
2022-08-16T12:41:26.723Z,32.00
2022-08-16T12:43:57.203Z,31.80
2022-08-16T12:46:29.112Z,31.80
2022-08-16T12:48:59.091Z,31.80
2022-08-16T12:51:59.371Z,31.70
2022-08-16T12:54:20.659Z,31.70
2022-08-16T12:56:48.051Z,31.70
2022-08-16T12:59:20.379Z,31.50
2022-08-16T13:01:50.530Z,31.30
2022-08-16T13:04:24.385Z,31.50
2022-08-16T13:06:53.284Z,31.50
2022-08-16T13:09:26.515Z,31.40
2022-08-16T13:12:07.499Z,31.60
2022-08-16T13:14:41.816Z,31.80
2022-08-16T13:17:15.510Z,31.90
2022-08-16T13:22:33.726Z,32.00
2022-08-16T13:25:00.758Z,32.20
2022-08-16T13:28:02.639Z,32.10
2022-08-16T13:30:35.666Z,32.00
2022-08-16T13:33:12.201Z,31.80
2022-08-16T13:35:44.252Z,31.70
2022-08-16T13:38:24.603Z,31.70
2022-08-16T13:40:55.023Z,31.80
2022-08-16T13:43:25.094Z,31.50
2022-08-16T13:45:55.973Z,31.30
2022-08-16T13:48:26.156Z,31.40
2022-08-16T13:50:56.372Z,31.40
2022-08-16T13:53:25.759Z,31.60
2022-08-16T13:55:57.984Z,31.50
2022-08-16T13:58:36.595Z,31.50
2022-08-16T14:01:15.736Z,31.50
2022-08-16T14:03:45.205Z,31.40
2022-08-16T14:06:14.199Z,31.50
2022-08-16T14:08:43.756Z,31.60
2022-08-16T14:11:17.585Z,31.60
2022-08-16T14:13:45.230Z,31.80
2022-08-16T14:16:23.835Z,31.90
2022-08-16T14:18:53.272Z,32.00
2022-08-16T14:21:23.716Z,32.20
2022-08-16T14:23:52.357Z,32.10
2022-08-16T14:26:21.398Z,32.30
2022-08-16T14:28:50.653Z,32.20
2022-08-16T14:31:18.548Z,32.00
2022-08-16T14:33:46.250Z,31.90
2022-08-16T14:36:25.186Z,31.80
2022-08-16T14:38:58.966Z,31.60
2022-08-16T14:41:26.632Z,31.40
2022-08-16T14:43:53.768Z,31.00
2022-08-16T14:46:20.937Z,30.70
2022-08-16T14:48:48.037Z,30.50
2022-08-16T14:51:15.945Z,30.50
2022-08-16T14:53:45.116Z,30.50
2022-08-16T14:56:14.981Z,30.60
2022-08-16T14:58:52.121Z,30.70
2022-08-16T15:01:20.102Z,30.70
2022-08-16T15:03:50.435Z,30.80
2022-08-16T15:06:22.534Z,30.80
2022-08-16T15:08:51.565Z,30.80
2022-08-16T15:11:19.032Z,30.70
2022-08-16T15:13:48.474Z,30.80
2022-08-16T15:16:18.778Z,30.80
2022-08-16T15:18:46.492Z,30.70
2022-08-16T15:21:14.150Z,30.50
2022-08-16T15:23:41.490Z,30.60
2022-08-16T15:26:08.885Z,30.70
2022-08-16T15:28:38.020Z,30.60
2022-08-16T15:31:08.417Z,30.70
2022-08-16T15:33:43.600Z,30.70
2022-08-16T15:36:17.557Z,30.70
2022-08-16T15:39:02.067Z,30.50
2022-08-16T15:41:42.599Z,30.40
2022-08-16T15:44:13.784Z,30.40
2022-08-16T15:46:57.135Z,30.30
2022-08-16T15:49:37.388Z,30.10
2022-08-16T15:52:18.313Z,30.00
2022-08-16T15:54:53.033Z,30.00
2022-08-16T15:57:24.411Z,29.90
2022-08-16T15:59:56.316Z,29.80
2022-08-16T16:02:39.186Z,29.80
2022-08-16T16:05:09.682Z,29.60
2022-08-16T16:07:37.709Z,29.60
2022-08-16T16:10:13.264Z,29.60
2022-08-16T16:12:51.655Z,29.60
2022-08-16T16:15:25.310Z,29.50
2022-08-16T16:17:53.852Z,29.30
2022-08-16T16:20:27.311Z,29.10
2022-08-16T16:23:01.030Z,29.00
2022-08-16T16:25:29.337Z,28.80
2022-08-16T16:27:59.808Z,28.80
2022-08-16T16:30:37.481Z,28.70
2022-08-16T16:33:15.845Z,28.70
2022-08-16T16:35:56.622Z,28.60
2022-08-16T16:38:28.896Z,28.60
2022-08-16T16:40:57.808Z,28.50
2022-08-16T16:43:25.989Z,28.40
2022-08-16T16:46:00.433Z,28.40
2022-08-16T16:48:34.865Z,28.30
2022-08-16T16:51:08.705Z,28.30
2022-08-16T16:53:41.180Z,28.20
2022-08-16T16:56:19.459Z,28.10
2022-08-16T16:59:04.804Z,28.00
2022-08-16T17:01:56.849Z,27.90
2022-08-16T17:04:31.828Z,27.80
2022-08-16T17:07:01.711Z,27.70
2022-08-16T17:09:29.852Z,27.60
2022-08-16T17:11:58.498Z,27.50
2022-08-16T17:14:32.310Z,27.40
2022-08-16T17:17:04.056Z,27.30
2022-08-16T17:19:32.079Z,27.10
2022-08-16T17:22:00.269Z,27.00
2022-08-16T17:24:33.248Z,26.90
2022-08-16T17:27:08.648Z,26.80
2022-08-16T17:29:46.086Z,26.60
2022-08-16T17:32:34.066Z,26.40
2022-08-16T17:35:10.828Z,26.20
2022-08-16T17:37:48.856Z,26.00
2022-08-16T17:40:40.578Z,25.90
2022-08-16T17:43:09.566Z,25.80
2022-08-16T17:45:39.154Z,25.70
2022-08-16T17:48:06.929Z,25.60
2022-08-16T17:50:34.458Z,25.40
2022-08-16T17:53:03.564Z,25.30
2022-08-16T17:55:33.522Z,25.10
2022-08-16T17:58:00.783Z,24.90
2022-08-16T18:00:48.579Z,24.70
2022-08-16T18:04:03.088Z,24.60
2022-08-16T18:06:15.619Z,24.40
2022-08-16T18:08:43.031Z,24.20
2022-08-16T18:11:12.165Z,24.10
2022-08-16T18:13:43.388Z,24.00
2022-08-16T18:16:14.044Z,23.90
2022-08-16T18:18:41.177Z,23.80
2022-08-16T18:21:28.283Z,23.70
2022-08-16T18:23:55.611Z,23.60
2022-08-16T18:26:22.921Z,23.40
2022-08-16T18:28:50.564Z,23.30
2022-08-16T18:31:17.873Z,23.10
2022-08-16T18:33:44.951Z,23.10
2022-08-16T18:36:21.240Z,23.00
2022-08-16T18:38:50.068Z,22.90
2022-08-16T18:41:18.350Z,22.80
2022-08-16T18:44:22.346Z,22.70
2022-08-16T18:46:32.884Z,22.60
2022-08-16T18:49:00.119Z,22.50
2022-08-16T18:51:27.222Z,22.40
2022-08-16T18:53:54.693Z,22.30
2022-08-16T18:56:21.798Z,22.20
2022-08-16T18:58:49.145Z,22.10
2022-08-16T19:01:16.326Z,22.00
2022-08-16T19:03:43.452Z,22.00
2022-08-16T19:06:14.345Z,21.90
2022-08-16T19:08:44.096Z,21.80
2022-08-16T19:11:15.355Z,21.70
2022-08-16T19:13:46.123Z,21.60
2022-08-16T19:16:14.559Z,21.60
2022-08-16T19:18:42.138Z,21.60
2022-08-16T19:21:14.730Z,21.50
2022-08-16T19:23:43.921Z,21.40
2022-08-16T19:26:24.623Z,21.40
2022-08-16T19:28:59.513Z,21.40
2022-08-16T19:31:33.434Z,21.30
2022-08-16T19:34:02.291Z,21.20
2022-08-16T19:36:35.719Z,21.10
2022-08-16T19:39:09.023Z,21.00
2022-08-16T19:41:39.016Z,21.00
2022-08-16T19:44:07.033Z,20.90
2022-08-16T19:46:35.241Z,20.80
2022-08-16T19:49:02.479Z,20.80
2022-08-16T19:51:29.908Z,20.80
2022-08-16T19:53:56.901Z,20.70
2022-08-16T19:56:25.884Z,20.60
2022-08-16T19:59:18.002Z,20.60
2022-08-16T20:01:44.230Z,20.60
2022-08-16T20:04:13.120Z,20.50
2022-08-16T20:06:41.403Z,20.50
2022-08-16T20:09:11.001Z,20.40
2022-08-16T20:11:44.708Z,20.40
2022-08-16T20:14:23.985Z,20.30
2022-08-16T20:16:56.727Z,20.30
2022-08-16T20:19:24.731Z,20.20
2022-08-16T20:21:52.140Z,20.10
2022-08-16T20:24:36.166Z,20.10
2022-08-16T20:27:06.382Z,20.00
2022-08-16T20:29:33.854Z,20.00
2022-08-16T20:32:01.103Z,20.00
2022-08-16T20:34:28.427Z,20.00
2022-08-16T20:36:55.403Z,19.90
2022-08-16T20:39:24.193Z,19.90
2022-08-16T20:41:51.932Z,19.80
2022-08-16T20:44:22.983Z,19.80
2022-08-16T20:46:52.846Z,19.80
2022-08-16T20:49:19.928Z,19.70
2022-08-16T20:51:50.543Z,19.60
2022-08-16T20:54:19.361Z,19.60
2022-08-16T20:56:47.148Z,19.60
2022-08-16T20:59:14.879Z,19.50
2022-08-16T21:01:46.355Z,19.40
2022-08-16T21:04:18.899Z,19.40
2022-08-16T21:06:53.439Z,19.40
2022-08-16T21:09:26.087Z,19.30
2022-08-16T21:11:56.020Z,19.30
2022-08-16T21:14:24.027Z,19.30
2022-08-16T21:16:51.791Z,19.20
2022-08-16T21:19:20.187Z,19.20
2022-08-16T21:21:47.553Z,19.20
2022-08-16T21:24:14.985Z,19.20
2022-08-16T21:26:49.845Z,19.10
2022-08-16T21:29:24.989Z,19.10
2022-08-16T21:32:10.646Z,19.00
2022-08-16T21:34:38.428Z,18.90
2022-08-16T21:37:05.933Z,18.90
2022-08-16T21:39:33.152Z,18.90
2022-08-16T21:42:00.411Z,18.90
2022-08-16T21:44:32.341Z,19.00
2022-08-16T21:47:06.428Z,19.10
2022-08-16T21:49:36.770Z,19.10
2022-08-16T21:52:05.539Z,19.10
2022-08-16T21:54:33.078Z,19.00
2022-08-16T21:57:00.146Z,19.00
2022-08-16T21:59:27.535Z,18.80
2022-08-16T22:01:54.710Z,18.70
2022-08-16T22:04:37.014Z,18.60
2022-08-16T22:07:06.360Z,18.50
2022-08-16T22:09:33.528Z,18.50
2022-08-16T22:12:00.627Z,18.50
2022-08-16T22:14:27.712Z,18.40
2022-08-16T22:16:55.974Z,18.40
2022-08-16T22:19:23.947Z,18.30
2022-08-16T22:21:51.618Z,18.20
2022-08-16T22:24:18.644Z,18.20
2022-08-16T22:26:45.774Z,18.20
2022-08-16T22:29:15.211Z,18.30
2022-08-16T22:31:43.533Z,18.20
2022-08-16T22:34:10.767Z,18.20
2022-08-16T22:36:39.129Z,18.20
2022-08-16T22:39:09.212Z,18.20
2022-08-16T22:41:38.114Z,18.20
2022-08-16T22:44:06.477Z,18.20
2022-08-16T22:46:34.952Z,18.20
2022-08-16T22:49:03.258Z,18.20
2022-08-16T22:51:30.966Z,18.20
2022-08-16T22:53:58.588Z,18.10
2022-08-16T22:56:27.372Z,18.10
2022-08-16T22:58:54.406Z,18.00
2022-08-16T23:01:24.394Z,18.10
2022-08-16T23:03:55.146Z,18.10
2022-08-16T23:06:23.754Z,18.00
2022-08-16T23:08:50.929Z,18.00
2022-08-16T23:11:22.533Z,17.90
2022-08-16T23:13:54.357Z,17.90
2022-08-16T23:16:33.284Z,17.80
2022-08-16T23:19:05.236Z,17.80
2022-08-16T23:21:33.412Z,17.70
2022-08-16T23:24:00.891Z,17.60
2022-08-16T23:26:44.107Z,17.60
2022-08-16T23:29:23.742Z,17.60
2022-08-16T23:31:54.782Z,17.60
2022-08-16T23:34:22.572Z,17.50
2022-08-16T23:36:50.503Z,17.60
2022-08-16T23:39:17.626Z,17.50
2022-08-16T23:41:44.728Z,17.50
2022-08-16T23:44:55.922Z,17.40
2022-08-16T23:46:59.140Z,17.40
2022-08-16T23:50:00.049Z,17.30
2022-08-16T23:52:13.231Z,17.30
2022-08-16T23:54:40.271Z,17.30
2022-08-16T23:57:08.450Z,17.30
2022-08-16T23:59:43.748Z,17.40
